Latest Coastal Weather Observations for Bundaberg

IDQ60701

Issued at 12:51 pm EST Thursday 5 May 2016 (issued every 10 minutes, with the page automatically refreshed every 10 minutes)

About coastal observations | Map of coastal stations | Coastal observations for QLD | Marine services | Other Formats
Station Details ID: 039128 Name: BUNDABERG AERO Lat: -24.91 Lon: 152.32 Height: 30.82 m
Data from the previous 72 hours. | See also: Recent months at Bundaberg
Date/Time
EST
Temp

°C
Wind Pressure Rain
since 9am
mm
Weather Cloud Vis
km
Sea
Height
m
Swell
Dir
 
Speed
knots
Gust
knots
hPa Trend Height
m
Period
s
Dir
05/12:30pm 26.9 E 8 13 1017.4 - 0.0 - Partly cloudy 10 - - - -
05/12:00pm 26.5 ESE 8 13 1018.1 - 0.0 - Partly cloudy 10 - - - -
05/11:30am 26.2 E 8 11 1018.6 - 0.0 - Partly cloudy 10 - - - -
05/11:00am 25.8 SE 8 13 1019.1 - 0.0 - Partly cloudy 10 - - - -
05/10:30am 25.2 SE 9 13 1019.6 - 0.0 - - 10 - - - -
05/10:00am 24.7 SE 9 12 1019.8 - 0.0 - - 10 - - - -
05/09:30am 24.3 SE 7 10 1020.0 - 0.0 - - 10 - - - -
05/09:00am 23.0 SSE 7 11 1019.9 - 0.2 - - 10 - - - -
05/08:30am 21.2 S 7 10 1019.7 - 0.2 - - 10 - - - -
05/08:00am 19.9 S 7 9 1019.4 - 0.2 - - 10 - - - -
05/07:30am 18.8 S 6 8 1019.2 - 0.2 - - 10 - - - -
05/07:00am 17.6 S 6 8 1018.9 - 0.2 - - 10 - - - -
05/06:30am 16.9 S 7 10 1018.3 - 0.2 - - 10 - - - -
05/06:00am 17.0 SSW 7 9 1018.1 - 0.2 - - 10 - - - -
05/05:30am 16.8 SSW 6 8 1017.8 - 0.2 - - 10 - - - -
05/05:00am 16.9 SSW 7 8 1017.5 - 0.2 - - 10 - - - -
05/04:30am 16.6 SSW 6 7 1017.3 - 0.2 - - 10 - - - -
05/04:00am 16.5 SSW 5 6 1017.1 - 0.2 - - 10 - - - -
05/03:30am 17.0 SSW 5 6 1017.1 - 0.2 - - 10 - - - -
05/03:00am 17.1 SSW 6 7 1016.9 - 0.2 - - 10 - - - -
05/02:30am 17.3 SSW 6 7 1017.0 - 0.2 - - 10 - - - -
05/02:00am 17.6 SSW 6 7 1017.2 - 0.2 - - 10 - - - -
05/01:30am 17.7 SSW 6 7 1017.3 - 0.2 - - 10 - - - -
05/01:00am 17.6 SSW 6 8 1017.3 - 0.2 - - 10 - - - -
05/12:30am 17.8 SSW 7 8 1017.5 - 0.2 - - 10 - - - -
05/12:00am 17.8 SSW 5 7 1017.6 - 0.2 - - 10 - - - -
 
Date/Time
EST
Temp

°C
Wind Pressure Rain
since 9am
mm
Weather Cloud Vis
km
Sea
Height
m
Swell
Dir
 
Speed
knots
Gust
knots
hPa Trend Height
m
Period
s
Dir
04/11:30pm 18.0 SSW 5 6 1017.8 - 0.2 - - 10 - - - -
04/11:00pm 18.2 SSW 6 8 1017.9 - 0.2 - - 10 - - - -
04/10:30pm 19.3 S 7 10 1018.0 - 0.2 - - 10 - - - -
04/10:00pm 19.6 SSE 6 8 1018.1 - 0.2 - - 10 - - - -
04/09:30pm 19.6 SSE 5 7 1018.1 - 0.2 - - 10 - - - -
04/09:00pm 19.8 SE 6 7 1017.9 - 0.2 - - 10 - - - -
04/08:30pm 20.2 ESE 6 8 1017.8 - 0.2 - - 10 - - - -
04/08:00pm 20.3 ESE 6 7 1017.6 - 0.2 - - 10 - - - -
04/07:30pm 21.0 ESE 7 7 1017.2 - 0.2 - - 10 - - - -
04/07:00pm 21.6 E 6 7 1016.8 - 0.2 - - 10 - - - -
04/06:30pm 22.2 E 5 6 1016.3 - 0.2 - Partly cloudy 10 - - - -
04/06:00pm 22.7 E 5 5 1015.9 - 0.2 - - 10 - - - -
04/05:30pm 23.7 ENE 5 6 1015.3 - 0.2 - - 10 - - - -
04/05:00pm 25.0 ENE 8 10 1014.7 - 0.2 - Partly cloudy 10 - - - -
04/04:30pm 25.7 ENE 8 10 1014.5 - 0.2 - Cloudy 10 - - - -
04/04:00pm 26.5 ENE 8 10 1014.2 - 0.2 - Cloudy 10 - - - -
04/03:30pm 26.1 E 8 10 1014.1 - 0.2 - Cloudy 10 - - - -
04/03:00pm 27.0 SE 4 6 1013.9 - 0.2 - Mostly cloudy 10 - - - -
04/02:30pm 26.9 S 3 5 1013.9 - 0.2 - Partly cloudy 10 - - - -
04/02:00pm 26.9 SSE 2 5 1013.8 - 0.2 - Partly cloudy 10 - - - -
04/01:30pm 27.2 SSW 6 7 1014.0 - 0.2 - Partly cloudy 10 - - - -
04/01:00pm 26.4 SSE 5 8 1014.3 - 0.2 - - 10 - - - -
04/12:30pm 26.1 SSW 7 11 1014.4 - 0.2 - - 10 - - - -
04/12:00pm 26.4 SW 7 10 1014.8 - 0.2 - - 10 - - - -
04/11:30am 26.1 SSW 9 13 1015.2 - 0.2 - - 10 - - - -
04/11:00am 25.0 SW 8 10 1015.4 - 0.2 - - 10 - - - -
04/10:30am 23.7 SW 8 11 1016.0 - 0.2 - - 10 - - - -
04/10:00am 22.3 WSW 6 7 1016.3 - 0.2 - Partly cloudy 10 - - - -
04/09:30am 21.1 SW 5 6 1016.9 - 0.2 - Partly cloudy 10 - - - -
04/09:00am 20.8 SSE 5 7 1016.7 - 2.8 Showers Mostly cloudy 10 - - - -
04/08:30am 20.2 SW 4 6 1016.8 - 2.2 - Partly cloudy 10 - - - -
04/08:00am 20.7 SSW 9 12 1016.4 - 1.0 - Partly cloudy 10 - - - -
04/07:30am 20.2 SSW 9 13 1015.9 - 1.0 - Partly cloudy 10 - - - -
04/07:00am 22.0 SW 9 13 1015.7 - 0.2 - Partly cloudy 10 - - - -
04/06:30am 22.0 SSW 6 7 1014.9 - 0.2 - Partly cloudy 10 - - - -
04/06:00am 21.9 SW 5 7 1014.6 - 0.2 Showers Cloudy 10 - - - -
04/05:30am 22.0 CALM 0 0 1014.0 - 0.0 - Partly cloudy 9 - - - -
04/05:23am 22.0 CALM 0 0 1013.9 - 0.0 - Partly cloudy 8 - - - -
04/05:00am 22.0 W 3 4 1013.5 - 0.0 - Partly cloudy 3 - - - -
04/04:46am 22.0 W 1 5 1013.5 - 0.0 - - 5 - - - -
04/04:30am 21.9 W 3 4 1013.2 - 0.0 - - 6 - - - -
04/04:00am 22.0 NW 3 5 1013.0 - 0.0 - - 8 - - - -
04/03:30am 22.2 CALM 0 0 1012.9 - 0.0 - - 10 - - - -
04/03:00am 22.3 SW 3 5 1012.9 - 0.0 - Cloudy 10 - - - -
04/02:30am 22.5 CALM 0 0 1012.8 - 0.0 - Partly cloudy 10 - - - -
04/02:00am 22.7 W 3 3 1013.0 - 0.0 - Cloudy 10 - - - -
04/01:30am 22.8 NNW 4 5 1013.1 - 0.0 - Cloudy 10 - - - -
04/01:00am 23.1 NNW 5 6 1013.2 - 0.0 - Partly cloudy 10 - - - -
04/12:30am 23.1 NNW 5 6 1013.2 - 0.0 - - 10 - - - -
04/12:00am 23.1 NNW 4 5 1013.3 - 0.0 - Cloudy 10 - - - -
 
Date/Time
EST
Temp

°C
Wind Pressure Rain
since 9am
mm
Weather Cloud Vis
km
Sea
Height
m
Swell
Dir
 
Speed
knots
Gust
knots
hPa Trend Height
m
Period
s
Dir
03/11:30pm 23.1 NNW 5 6 1013.6 - 0.0 - - 10 - - - -
03/11:00pm 23.1 NNW 4 5 1013.7 - 0.0 - - 10 - - - -
03/10:30pm 23.5 NNW 4 5 1013.4 - 0.0 - - 10 - - - -
03/10:00pm 24.0 N 6 7 1013.6 - 0.0 - - 10 - - - -
03/09:30pm 24.1 N 6 7 1013.7 - 0.0 - - 10 - - - -
03/09:00pm 24.1 N 6 7 1013.7 - 0.0 - Mostly cloudy 10 - - - -
03/08:30pm 24.3 N 6 7 1013.8 - 0.0 - - 10 - - - -
03/08:00pm 24.1 NNW 7 9 1013.9 - 0.0 - - 10 - - - -
03/07:30pm 24.1 NNW 7 9 1013.6 - 0.0 - - 10 - - - -
03/07:00pm 24.4 N 7 9 1013.1 - 0.0 - - 10 - - - -
03/06:30pm 24.5 N 7 9 1012.6 - 0.0 - - 10 - - - -
03/06:00pm 24.6 N 8 10 1012.1 - 0.0 - Cloudy 10 - - - -
03/05:30pm 24.9 N 7 10 1012.0 - 0.0 - - 10 - - - -
03/05:00pm 25.3 N 6 9 1011.7 - 0.0 - - 10 - - - -
03/04:30pm 25.7 N 10 12 1011.4 - 0.0 - - 10 - - - -
03/04:00pm 26.2 N 10 12 1011.2 - 0.0 - - 10 - - - -
03/03:30pm 27.4 N 9 12 1011.1 - 0.0 - Partly cloudy 10 - - - -
03/03:00pm 27.8 N 9 11 1010.9 - 0.0 - Mostly clear 10 - - - -
03/02:30pm 28.6 N 8 10 1011.0 - 0.0 - Partly cloudy 10 - - - -
03/02:00pm 29.5 W 4 9 1011.2 - 0.0 - - 10 - - - -
03/01:30pm 29.2 NW 6 10 1011.5 - 0.0 - Partly cloudy 10 - - - -
03/01:00pm 28.9 W 3 5 1012.0 - 0.0 - - 10 - - - -
03/12:30pm 28.1 W 4 7 1012.4 - 0.0 - Partly cloudy 10 - - - -
03/12:00pm 27.7 W 4 8 1013.0 - 0.0 - - 10 - - - -
03/11:30am 28.0 NNW 3 8 1013.6 - 0.0 - - 10 - - - -
03/11:00am 26.7 WSW 2 6 1014.1 - 0.0 - - 10 - - - -
03/10:30am 26.1 WSW 5 7 1014.6 - 0.0 - - 10 - - - -
03/10:00am 24.5 W 6 7 1015.2 - 0.0 - - 10 - - - -
03/09:30am 24.1 W 4 7 1015.1 - 0.0 - - 10 - - - -
03/09:00am 23.1 CALM 0 0 1015.1 - 12.2 - Partly cloudy 10 - - - -
03/08:30am 22.4 NNW 1 3 1015.3 - 12.2 - Partly cloudy 10 - - - -
03/08:00am 22.0 NNW 3 4 1015.3 - 12.2 - - 10 - - - -
03/07:30am 21.7 CALM 0 0 1015.2 - 12.2 - - 10 - - - -
03/07:00am 21.6 CALM 0 0 1015.0 - 12.2 - Cloudy 10 - - - -
03/06:30am 21.4 NE 3 5 1014.5 - 12.2 - Cloudy 10 - - - -
03/06:00am 21.3 CALM 0 0 1014.3 - 12.2 - Cloudy 10 - - - -
03/05:30am 21.4 NNE 1 5 1013.8 - 12.2 - Cloudy 10 - - - -
03/05:00am 21.2 CALM 0 0 1013.2 - 12.2 - Partly cloudy 10 - - - -
03/04:30am 21.1 NNW 1 3 1013.3 - 12.2 - Partly cloudy 10 - - - -
03/04:00am 21.3 WNW 4 5 1013.2 - 12.2 - Cloudy 10 - - - -
03/03:30am 21.5 NW 4 6 1013.5 - 12.2 - Cloudy 10 - - - -
03/03:00am 21.7 W 4 7 1013.9 - 12.0 Showers Cloudy 10 - - - -
03/02:30am 22.1 WSW 7 9 1014.4 - 12.0 - Partly cloudy 10 - - - -
03/02:00am 22.6 W 2 5 1014.6 - 12.0 - Partly cloudy 10 - - - -
03/01:30am 22.4 CALM 0 0 1014.9 - 12.0 - Partly cloudy 10 - - - -
03/01:24am 22.5 CALM 0 0 1015.0 - 12.0 - Partly cloudy 8 - - - -
03/01:13am 22.6 CALM 0 0 1015.1 - 11.8 - Partly cloudy 5 - - - -
03/01:08am 22.6 CALM 0 0 1015.1 - 11.4 - Partly cloudy 8 - - - -
03/01:00am 22.4 CALM 0 0 1015.2 - 11.2 - Partly cloudy 10 - - - -
03/12:30am 22.5 S 2 5 1015.5 - 11.2 - Partly cloudy 10 - - - -
03/12:23am 22.6 SSE 4 6 1015.5 - 11.2 - Partly cloudy 10 - - - -
03/12:15am 22.8 E 4 6 1015.5 - 11.2 - Partly cloudy 10 - - - -
03/12:06am 22.5 WSW 2 4 1015.5 - 11.2 - Partly cloudy 6 - - - -
03/12:00am 22.5 SSE 3 8 1015.7 - 11.0 Showers Cloudy 2 - - - -
 
Date/Time
EST
Temp

°C
Wind Pressure Rain
since 9am
mm
Weather Cloud Vis
km
Sea
Height
m
Swell
Dir
 
Speed
knots
Gust
knots
hPa Trend Height
m
Period
s
Dir
02/11:42pm 22.5 S 6 9 1015.6 - 3.6 - Partly cloudy 3 - - - -
02/11:30pm 22.5 SSW 5 6 1015.7 - 0.8 - Partly cloudy 5 - - - -
02/11:29pm 22.5 SSW 5 6 1015.7 - 0.8 - Partly cloudy 5 - - - -
02/11:00pm 22.7 S 4 5 1015.9 - 0.0 - Partly cloudy 10 - - - -
02/10:40pm 22.7 CALM 0 0 1016.1 - 0.0 - Partly cloudy 10 - - - -
02/10:30pm 22.8 CALM 0 0 1016.1 - 0.0 - Partly cloudy 10 - - - -
02/10:00pm 22.7 SSW 2 5 1016.0 - 0.0 - Partly cloudy 10 - - - -
02/09:54pm 22.5 CALM 0 4 1016.0 - 0.0 - Partly cloudy 10 - - - -
02/09:30pm 22.2 NE 3 5 1015.6 - 0.0 - Partly cloudy 10 - - - -
02/09:00pm 22.9 NE 3 3 1015.6 - 0.0 - Mostly clear 10 - - - -
02/08:30pm 23.6 NNE 5 6 1015.7 - 0.0 - Partly cloudy 10 - - - -
02/08:00pm 23.5 NNE 5 6 1015.4 - 0.0 - - 10 - - - -
02/07:30pm 23.9 NNE 5 7 1015.1 - 0.0 - - 10 - - - -
02/07:00pm 24.4 N 6 7 1014.9 - 0.0 - - 10 - - - -
02/06:30pm 24.6 N 7 9 1014.6 - 0.0 - Partly cloudy 10 - - - -
02/06:00pm 24.8 NNE 8 9 1014.2 - 0.0 - Mostly clear 10 - - - -
02/05:30pm 25.2 NNE 8 9 1014.0 - 0.0 - - 10 - - - -
02/05:00pm 25.7 NE 7 9 1013.6 - 0.0 - - 10 - - - -
02/04:30pm 26.8 NNE 9 12 1013.3 - 0.0 - - 10 - - - -
02/04:00pm 27.3 NNE 10 13 1012.9 - 0.0 - - 10 - - - -
02/03:30pm 27.9 NNE 10 13 1012.8 - 0.0 - Partly cloudy 10 - - - -
02/03:00pm 28.5 NNE 9 13 1012.8 - 0.0 - Mostly clear 10 - - - -
02/02:30pm 27.9 ENE 8 10 1013.1 - 0.0 - Partly cloudy 10 - - - -
02/02:00pm 27.9 ENE 7 10 1013.2 - 0.0 - Partly cloudy 10 - - - -
02/01:30pm 29.4 ENE 7 10 1013.4 - 0.0 - Partly cloudy 10 - - - -
02/01:00pm 29.0 ENE 7 10 1013.8 - 0.0 - Partly cloudy 10 - - - -

Other Formats:

Comma delimited format used in spreadsheet applications
http://www.bom.gov.au/fwo/IDQ60701/IDQ60701.94387.axf

JavaScript Object Notation format (JSON) in row-major order
http://www.bom.gov.au/fwo/IDQ60701/IDQ60701.94387.json